Columbus, Ohio
Traffic Map
Current Weather Conditions
Columbus, Ohio
Overcast
Overcast
49°
Feels Like: 46°
Wind Chill: 46° Ceiling: 3400
Heat Index: 49° Visibility: 10mi
Dew Point: 41° Wind: 7mph
Humidity: 74% Direction: 330° (NNW)
Pressure: 30.25in Gusts: 0mph
Raw Report DataKCMH 230151Z 33006KT 10SM FEW024 OVC034 09/05 A3025 RMK AO2 SLP247 T00940050
Traffic Incident Summary
Active as of:
Severity:
Category:
InformationThere was an issue retrieving the traffic information for this location. Please try a different location or try again shortly.
Advertisements
Track Severe Weather on mobile